createdAt,value
2018-07-15T00:01:55.475Z,5.67
2018-07-15T00:04:22.499Z,5.57
2018-07-15T00:06:49.496Z,5.30
2018-07-15T00:11:55.174Z,6.10
2018-07-15T00:14:22.164Z,5.80
2018-07-15T00:16:49.152Z,5.63
2018-07-15T00:19:16.179Z,5.03
2018-07-15T00:21:43.170Z,5.33
2018-07-15T00:24:10.147Z,5.40
2018-07-15T00:26:37.207Z,5.63
2018-07-15T00:29:04.194Z,5.30
2018-07-15T00:31:31.190Z,5.63
2018-07-15T00:33:58.796Z,5.57
2018-07-15T00:36:25.769Z,6.00
2018-07-15T00:38:52.757Z,6.10
2018-07-15T00:41:19.813Z,5.80
2018-07-15T00:43:47.599Z,5.33
2018-07-15T00:46:13.886Z,5.23
2018-07-15T00:48:40.913Z,6.13
2018-07-15T00:51:08.729Z,5.90
2018-07-15T00:53:35.720Z,5.90
2018-07-15T00:56:02.770Z,5.37
2018-07-15T00:58:29.750Z,5.30
2018-07-15T01:00:56.732Z,5.33
2018-07-15T01:03:23.845Z,6.10
2018-07-15T01:05:50.833Z,5.90
2018-07-15T01:08:17.820Z,5.50
2018-07-15T01:10:45.610Z,5.40
2018-07-15T01:13:12.593Z,6.03
2018-07-15T01:15:39.579Z,5.87
2018-07-15T01:18:06.612Z,5.70
2018-07-15T01:20:33.607Z,5.60
2018-07-15T01:25:39.133Z,6.40
2018-07-15T01:28:06.137Z,5.87
2018-07-15T01:30:33.135Z,6.33
2018-07-15T01:33:00.163Z,5.80
2018-07-15T01:35:27.148Z,5.63
2018-07-15T01:37:54.145Z,5.60
2018-07-15T01:40:21.197Z,6.40
2018-07-15T01:42:48.182Z,6.33
2018-07-15T01:45:15.176Z,5.97
2018-07-15T01:47:42.217Z,6.00
2018-07-15T01:50:09.205Z,6.70
2018-07-15T01:52:36.197Z,6.30
2018-07-15T01:55:03.257Z,6.87
2018-07-15T01:57:30.242Z,6.60
2018-07-15T01:59:57.456Z,6.23
2018-07-15T02:02:24.489Z,6.37
2018-07-15T02:04:51.476Z,6.27
2018-07-15T02:07:18.468Z,6.27
2018-07-15T02:09:46.058Z,6.13
2018-07-15T02:12:13.049Z,6.50
2018-07-15T02:14:40.040Z,5.83
2018-07-15T02:17:07.059Z,6.20
2018-07-15T02:19:34.044Z,6.17
2018-07-15T02:22:01.029Z,6.40
2018-07-15T02:24:28.094Z,5.47
2018-07-15T02:26:56.388Z,5.70
2018-07-15T02:32:01.888Z,6.55
2018-07-15T02:34:28.904Z,6.10
2018-07-15T02:36:55.889Z,5.80
2018-07-15T02:39:22.954Z,6.47
2018-07-15T02:41:50.031Z,6.20
2018-07-15T02:44:17.021Z,6.03
2018-07-15T02:46:44.046Z,6.20
2018-07-15T02:49:11.041Z,6.17
2018-07-15T02:51:38.985Z,6.90
2018-07-15T02:54:06.038Z,5.83
2018-07-15T02:56:33.041Z,6.43
2018-07-15T02:59:00.034Z,6.07
2018-07-15T03:01:27.052Z,7.00
2018-07-15T03:03:54.036Z,6.67
2018-07-15T03:06:21.017Z,6.83
2018-07-15T03:08:48.080Z,6.77
2018-07-15T03:11:15.057Z,6.30
2018-07-15T03:13:42.034Z,6.20
2018-07-15T03:16:09.062Z,6.87
2018-07-15T03:18:36.053Z,6.73
2018-07-15T03:21:03.045Z,6.20
2018-07-15T03:23:30.107Z,6.03
2018-07-15T03:25:57.093Z,7.07
2018-07-15T03:28:24.126Z,7.53
2018-07-15T03:30:51.116Z,7.23
2018-07-15T03:33:18.095Z,7.13
2018-07-15T03:35:45.802Z,6.60
2018-07-15T03:38:12.880Z,6.70
2018-07-15T03:40:39.861Z,6.33
2018-07-15T03:43:06.849Z,6.67
2018-07-15T03:45:33.891Z,7.43
2018-07-15T03:48:00.885Z,7.57
2018-07-15T03:53:06.413Z,7.70
2018-07-15T03:55:33.405Z,7.83
2018-07-15T03:58:00.393Z,8.10
2018-07-15T04:00:27.420Z,6.90
2018-07-15T04:02:54.402Z,7.63
2018-07-15T04:05:21.387Z,8.03
2018-07-15T04:07:48.446Z,3.80
2018-07-15T04:10:15.430Z,1.90
2018-07-15T04:12:42.497Z,1.40
2018-07-15T04:15:09.530Z,0.70
2018-07-15T04:17:36.517Z,1.00
2018-07-15T04:20:03.496Z,0.90
2018-07-15T04:22:30.574Z,2.67
2018-07-15T04:24:57.565Z,5.60
2018-07-15T04:27:24.565Z,6.87
2018-07-15T04:29:51.596Z,7.27
2018-07-15T04:32:19.399Z,8.47
2018-07-15T04:34:46.388Z,8.33
2018-07-15T04:37:13.452Z,6.43
2018-07-15T04:39:40.526Z,6.43
2018-07-15T04:42:07.521Z,4.53
2018-07-15T04:44:34.917Z,4.77
2018-07-15T04:47:01.917Z,5.27
2018-07-15T04:49:28.901Z,4.87
2018-07-15T04:51:55.971Z,5.03
2018-07-15T04:54:22.961Z,3.80
2018-07-15T04:56:49.947Z,3.53
2018-07-15T04:59:16.981Z,2.77
2018-07-15T05:01:43.959Z,2.30
2018-07-15T05:04:10.938Z,3.33
2018-07-15T05:06:37.972Z,2.83
2018-07-15T05:11:47.085Z,2.80
2018-07-15T05:14:14.173Z,2.60
2018-07-15T05:16:41.078Z,2.90
2018-07-15T05:19:08.141Z,2.57
2018-07-15T05:24:13.829Z,2.67
2018-07-15T05:26:40.815Z,1.93
2018-07-15T05:29:08.586Z,1.73
2018-07-15T05:31:35.652Z,1.80
2018-07-15T05:34:02.653Z,2.40
2018-07-15T05:36:29.632Z,1.87
2018-07-15T05:38:56.671Z,2.37
2018-07-15T05:41:23.664Z,2.03
2018-07-15T05:43:51.011Z,1.63
2018-07-15T05:46:17.965Z,2.17
2018-07-15T05:48:44.944Z,2.00
2018-07-15T05:51:11.938Z,3.13
2018-07-15T05:53:38.970Z,2.63
2018-07-15T05:56:05.958Z,2.80
2018-07-15T05:58:32.944Z,3.30
2018-07-15T06:01:00.004Z,3.17
2018-07-15T06:03:27.089Z,3.67
2018-07-15T06:05:54.065Z,4.30
2018-07-15T06:08:21.099Z,4.47
2018-07-15T06:10:48.610Z,4.00
2018-07-15T06:13:15.401Z,3.97
2018-07-15T06:15:42.482Z,4.90
2018-07-15T06:18:09.470Z,4.23
2018-07-15T06:20:36.460Z,4.10
2018-07-15T06:23:03.541Z,4.80
2018-07-15T06:25:30.536Z,4.37
2018-07-15T06:27:57.522Z,4.60
2018-07-15T06:30:24.556Z,5.00
2018-07-15T06:32:51.549Z,4.77
2018-07-15T06:35:18.540Z,4.47
2018-07-15T06:37:46.440Z,4.80
2018-07-15T06:40:13.427Z,4.67
2018-07-15T06:45:19.865Z,5.22
2018-07-15T06:47:46.850Z,5.13
2018-07-15T06:50:13.842Z,4.53
2018-07-15T06:52:40.956Z,5.07
2018-07-15T06:55:07.902Z,5.03
2018-07-15T06:57:34.888Z,5.13
2018-07-15T07:00:01.927Z,5.13
2018-07-15T07:02:28.929Z,4.67
2018-07-15T07:04:55.926Z,4.43
2018-07-15T07:07:23.041Z,4.33
2018-07-15T07:09:49.976Z,4.93
2018-07-15T07:12:16.970Z,4.30
2018-07-15T07:14:44.093Z,4.07
2018-07-15T07:17:11.089Z,3.53
2018-07-15T07:19:38.075Z,3.40
2018-07-15T07:22:05.138Z,3.43
2018-07-15T07:24:32.168Z,4.07
2018-07-15T07:26:59.148Z,4.00
2018-07-15T07:29:26.207Z,4.50
2018-07-15T07:31:53.197Z,4.20
2018-07-15T07:34:20.183Z,5.40
2018-07-15T07:36:47.225Z,5.33
2018-07-15T07:39:14.309Z,6.23
2018-07-15T07:44:19.833Z,5.55
2018-07-15T07:46:46.840Z,4.80
2018-07-15T07:49:14.763Z,4.13
2018-07-15T07:51:41.819Z,3.90
2018-07-15T07:54:09.644Z,4.00
2018-07-15T07:56:36.622Z,3.30
2018-07-15T07:59:03.664Z,3.23
2018-07-15T08:01:31.637Z,3.20
2018-07-15T08:03:58.620Z,4.67
2018-07-15T08:06:25.649Z,5.70
2018-07-15T08:08:52.638Z,5.03
2018-07-15T08:11:19.629Z,5.83
2018-07-15T08:13:47.598Z,4.70
2018-07-15T08:16:14.593Z,5.70
2018-07-15T08:18:41.586Z,5.73
2018-07-15T08:21:08.644Z,5.03
2018-07-15T08:23:36.368Z,4.67
2018-07-15T08:26:03.348Z,5.10
2018-07-15T08:28:31.089Z,4.73
2018-07-15T08:31:02.960Z,4.23
2018-07-15T08:36:12.808Z,5.25
2018-07-15T08:38:39.850Z,5.63
2018-07-15T08:41:06.847Z,5.60
2018-07-15T08:43:33.843Z,5.93
2018-07-15T08:46:00.946Z,5.93
2018-07-15T08:48:27.909Z,5.40
2018-07-15T08:50:54.908Z,5.00
2018-07-15T08:53:22.793Z,5.23
2018-07-15T08:55:50.761Z,6.43
2018-07-15T08:58:17.793Z,5.47
2018-07-15T09:00:45.787Z,6.27
2018-07-15T09:03:12.797Z,5.50
2018-07-15T09:05:40.641Z,5.73
2018-07-15T09:08:07.712Z,6.00
2018-07-15T09:10:34.721Z,6.03
2018-07-15T09:13:01.756Z,6.33
2018-07-15T09:15:29.819Z,5.53
2018-07-15T09:17:56.780Z,5.83
2018-07-15T09:20:23.770Z,6.03
2018-07-15T09:22:52.153Z,5.33
2018-07-15T09:25:19.177Z,4.80
2018-07-15T09:27:46.222Z,5.20
2018-07-15T09:30:13.985Z,4.57
2018-07-15T09:32:41.028Z,4.37
2018-07-15T09:35:08.822Z,4.20
2018-07-15T09:37:35.861Z,4.37
2018-07-15T09:40:03.702Z,3.50
2018-07-15T09:42:30.704Z,4.00
2018-07-15T09:44:57.751Z,3.30
2018-07-15T09:47:24.750Z,3.17
2018-07-15T09:49:51.760Z,3.17
2018-07-15T09:52:18.813Z,2.70
2018-07-15T09:57:24.469Z,3.90
2018-07-15T09:59:51.498Z,3.73
2018-07-15T10:02:18.529Z,3.13
2018-07-15T10:04:45.679Z,2.67
2018-07-15T10:07:13.495Z,2.70
2018-07-15T10:09:41.304Z,2.57
2018-07-15T10:12:08.364Z,1.70
2018-07-15T10:14:36.181Z,2.00
2018-07-15T10:17:03.210Z,2.37
2018-07-15T10:19:30.265Z,2.07
2018-07-15T10:21:57.303Z,2.07
2018-07-15T10:24:24.318Z,2.13
2018-07-15T10:26:52.260Z,2.13
2018-07-15T10:29:19.278Z,1.83
2018-07-15T10:31:47.108Z,2.03
2018-07-15T10:34:14.160Z,2.20
2018-07-15T10:36:41.170Z,2.20
2018-07-15T10:39:08.288Z,1.70
2018-07-15T10:41:35.265Z,1.57
2018-07-15T10:46:44.093Z,1.70
2018-07-15T10:49:11.130Z,1.90
2018-07-15T10:51:38.182Z,1.30
2018-07-15T10:54:05.954Z,1.60
2018-07-15T10:59:11.147Z,1.70
2018-07-15T11:01:38.183Z,1.57
2018-07-15T11:04:05.196Z,2.10
2018-07-15T11:06:32.271Z,1.67
2018-07-15T11:09:00.257Z,1.90
2018-07-15T11:11:27.266Z,1.80
2018-07-15T11:13:54.316Z,1.90
2018-07-15T11:16:21.354Z,1.50
2018-07-15T11:18:48.364Z,1.47
2018-07-15T11:21:15.495Z,1.70
2018-07-15T11:23:45.920Z,1.60
2018-07-15T11:26:11.400Z,1.73
2018-07-15T11:28:38.455Z,1.57
2018-07-15T11:31:05.575Z,1.60
2018-07-15T11:33:32.487Z,1.60
2018-07-15T11:35:59.539Z,1.80
2018-07-15T11:38:26.541Z,1.50
2018-07-15T11:40:53.537Z,1.40
2018-07-15T11:43:20.613Z,1.50
2018-07-15T11:45:47.627Z,1.67
2018-07-15T11:48:14.663Z,1.37
2018-07-15T11:50:41.678Z,1.40
2018-07-15T11:53:09.446Z,1.83
2018-07-15T11:55:37.422Z,1.83
2018-07-15T11:58:04.471Z,1.60
2018-07-15T12:00:33.515Z,1.70
2018-07-15T12:03:00.633Z,1.97
2018-07-15T12:05:33.117Z,1.70
2018-07-15T12:08:00.656Z,2.27
2018-07-15T12:10:27.669Z,1.30
2018-07-15T12:12:54.731Z,1.70
2018-07-15T12:15:21.763Z,1.70
2018-07-15T12:17:48.776Z,1.57
2018-07-15T12:22:57.363Z,1.90
2018-07-15T12:25:24.962Z,1.70
2018-07-15T12:27:52.070Z,1.90
2018-07-15T12:30:19.916Z,1.60
2018-07-15T12:32:47.003Z,1.60
2018-07-15T12:35:14.936Z,1.70
2018-07-15T12:37:42.756Z,1.50
2018-07-15T12:40:09.784Z,1.60
2018-07-15T12:42:36.796Z,1.47
2018-07-15T12:45:03.821Z,1.37
2018-07-15T12:47:31.693Z,1.70
2018-07-15T12:49:58.714Z,1.50
2018-07-15T12:52:26.591Z,1.40
2018-07-15T12:54:53.804Z,1.30
2018-07-15T12:57:20.892Z,1.53
2018-07-15T12:59:47.898Z,1.90
2018-07-15T13:02:15.914Z,1.47
2018-07-15T13:04:42.925Z,1.60
2018-07-15T13:07:09.929Z,1.80
2018-07-15T13:09:36.993Z,1.50
2018-07-15T13:12:04.960Z,1.80
2018-07-15T13:14:32.315Z,1.37
2018-07-15T13:16:59.400Z,1.63
2018-07-15T13:19:26.426Z,1.60
2018-07-15T13:21:53.457Z,1.60
2018-07-15T13:24:21.482Z,1.30
2018-07-15T13:26:49.080Z,1.40
2018-07-15T13:29:16.122Z,1.80
2018-07-15T13:31:44.029Z,1.40
2018-07-15T13:34:12.057Z,1.50
2018-07-15T13:36:38.033Z,1.70
2018-07-15T13:39:05.059Z,1.53
2018-07-15T13:41:32.141Z,1.33
2018-07-15T13:43:59.182Z,1.40
2018-07-15T13:49:04.723Z,1.60
2018-07-15T13:51:32.631Z,1.47
2018-07-15T13:53:59.632Z,1.63
2018-07-15T13:56:27.504Z,1.80
2018-07-15T13:58:54.537Z,1.63
2018-07-15T14:01:21.531Z,1.80
2018-07-15T14:03:48.535Z,1.70
2018-07-15T14:06:15.574Z,1.30
2018-07-15T14:08:44.073Z,1.50
2018-07-15T14:11:11.175Z,1.50
2018-07-15T14:13:38.227Z,1.73
2018-07-15T14:16:05.318Z,1.80
2018-07-15T14:18:32.319Z,1.80
2018-07-15T14:20:59.374Z,1.50
2018-07-15T14:23:26.380Z,1.80
2018-07-15T14:25:53.375Z,1.70
2018-07-15T14:28:21.452Z,1.90
2018-07-15T14:30:48.555Z,1.80
2018-07-15T14:33:15.466Z,1.60
2018-07-15T14:35:42.532Z,1.60
2018-07-15T14:38:09.539Z,1.80
2018-07-15T14:40:36.528Z,1.75
2018-07-15T14:43:03.563Z,1.95
2018-07-15T14:45:31.362Z,1.73
2018-07-15T14:47:58.362Z,1.80
2018-07-15T14:53:04.458Z,2.03
2018-07-15T14:55:34.172Z,1.60
2018-07-15T14:58:01.282Z,1.62
2018-07-15T15:00:28.306Z,1.67
2018-07-15T15:02:55.330Z,1.77
2018-07-15T15:05:23.166Z,1.62
2018-07-15T15:10:31.800Z,1.50
2018-07-15T15:12:58.643Z,1.95
2018-07-15T15:15:25.664Z,1.77
2018-07-15T15:17:52.745Z,1.60
2018-07-15T15:20:19.736Z,1.40
2018-07-15T15:22:46.763Z,1.57
2018-07-15T15:25:13.790Z,1.80
2018-07-15T15:27:41.690Z,1.70
2018-07-15T15:30:08.705Z,1.80
2018-07-15T15:32:35.738Z,1.80
2018-07-15T15:35:03.663Z,1.70
2018-07-15T15:37:30.664Z,1.73
2018-07-15T15:39:57.717Z,1.83
2018-07-15T15:42:24.743Z,1.70
2018-07-15T15:44:52.695Z,1.93
2018-07-15T15:47:20.466Z,2.00
2018-07-15T15:49:47.455Z,1.50
2018-07-15T15:52:14.431Z,2.03
2018-07-15T15:54:41.493Z,1.50
2018-07-15T15:57:08.629Z,1.70
2018-07-15T15:59:36.402Z,2.10
2018-07-15T16:02:03.436Z,2.03
2018-07-15T16:04:30.447Z,1.93
2018-07-15T16:06:57.529Z,2.07
2018-07-15T16:09:24.531Z,2.10
2018-07-15T16:11:51.537Z,2.20
2018-07-15T16:14:18.545Z,1.63
2018-07-15T16:16:45.694Z,1.70
2018-07-15T16:19:13.420Z,1.97
2018-07-15T16:21:40.637Z,1.47
2018-07-15T16:26:46.493Z,1.70
2018-07-15T16:29:13.572Z,1.83
2018-07-15T16:31:40.676Z,1.67
2018-07-15T16:34:08.119Z,1.50
2018-07-15T16:36:35.099Z,1.90
2018-07-15T16:39:02.216Z,1.70
2018-07-15T16:41:29.825Z,2.03
2018-07-15T16:43:57.101Z,1.60
2018-07-15T16:46:24.096Z,2.07
2018-07-15T16:48:51.142Z,1.90
2018-07-15T16:51:18.298Z,2.00
2018-07-15T16:53:45.284Z,2.13
2018-07-15T16:56:12.322Z,1.77
2018-07-15T16:58:39.699Z,1.60
2018-07-15T17:01:06.516Z,1.80
2018-07-15T17:03:34.251Z,1.50
2018-07-15T17:06:01.391Z,1.87
2018-07-15T17:08:28.338Z,1.90
2018-07-15T17:10:55.342Z,1.77
2018-07-15T17:13:23.241Z,2.00
2018-07-15T17:15:50.253Z,1.70
2018-07-15T17:18:18.282Z,1.60
2018-07-15T17:20:45.299Z,1.63
2018-07-15T17:25:51.723Z,1.70
2018-07-15T17:28:18.703Z,4.13
2018-07-15T17:30:45.698Z,1.97
2018-07-15T17:33:12.758Z,1.50
2018-07-15T17:35:40.496Z,1.80
2018-07-15T17:38:08.436Z,2.10
2018-07-15T17:40:35.598Z,2.10
2018-07-15T17:43:02.546Z,2.03
2018-07-15T17:45:29.539Z,1.70
2018-07-15T17:47:56.914Z,2.07
2018-07-15T17:50:23.912Z,2.20
2018-07-15T17:52:51.770Z,2.07
2018-07-15T17:57:57.078Z,2.30
2018-07-15T18:00:24.984Z,2.10
2018-07-15T18:02:53.068Z,2.50
2018-07-15T18:05:20.157Z,2.10
2018-07-15T18:07:47.354Z,2.30
2018-07-15T18:10:15.391Z,1.90
2018-07-15T18:12:42.501Z,1.60
2018-07-15T18:15:10.821Z,2.07
2018-07-15T18:17:38.779Z,2.10
2018-07-15T18:20:05.786Z,2.13
2018-07-15T18:22:34.579Z,1.90
2018-07-15T18:25:01.754Z,1.87
2018-07-15T18:29:56.965Z,2.00
2018-07-15T18:32:24.140Z,2.53
2018-07-15T18:34:51.501Z,2.00
2018-07-15T18:37:18.834Z,1.67
2018-07-15T18:39:46.399Z,2.03
2018-07-15T18:42:14.283Z,1.77
2018-07-15T18:44:41.942Z,1.90
2018-07-15T18:47:09.839Z,1.93
2018-07-15T18:49:37.972Z,2.03
2018-07-15T18:52:06.606Z,1.87
2018-07-15T18:54:34.730Z,2.00
2018-07-15T18:57:02.735Z,1.93
2018-07-15T18:59:30.879Z,2.00
2018-07-15T19:01:59.949Z,2.10
2018-07-15T19:04:28.037Z,3.37
2018-07-15T19:06:56.522Z,3.07
2018-07-15T19:09:24.569Z,3.53
2018-07-15T19:11:56.332Z,3.20
2018-07-15T19:14:24.667Z,2.97
2018-07-15T19:16:52.986Z,3.00
2018-07-15T19:22:02.232Z,3.00
2018-07-15T19:24:30.143Z,3.17
2018-07-15T19:29:29.356Z,2.93
2018-07-15T19:34:35.394Z,3.67
2018-07-15T19:37:03.462Z,3.30
2018-07-15T19:39:31.513Z,3.27
2018-07-15T19:41:59.294Z,2.80
2018-07-15T19:44:27.318Z,2.50
2018-07-15T19:46:56.834Z,2.60
2018-07-15T19:49:25.252Z,2.63
2018-07-15T19:51:53.203Z,3.00
2018-07-15T19:54:21.210Z,2.60
2018-07-15T19:56:49.757Z,2.40
2018-07-15T19:59:17.489Z,2.63
2018-07-15T20:01:45.452Z,3.30
2018-07-15T20:04:14.066Z,3.07
2018-07-15T20:06:41.658Z,3.10
2018-07-15T20:09:09.032Z,2.53
2018-07-15T20:11:37.356Z,2.90
2018-07-15T20:14:05.734Z,3.10
2018-07-15T20:16:33.469Z,2.77
2018-07-15T20:19:01.358Z,3.00
2018-07-15T20:21:29.319Z,3.03
2018-07-15T20:23:57.226Z,2.77
2018-07-15T20:26:27.973Z,2.83
2018-07-15T20:28:55.581Z,3.03
2018-07-15T20:31:22.948Z,2.90
2018-07-15T20:33:50.532Z,3.50
2018-07-15T20:36:17.940Z,3.37
2018-07-15T20:38:44.871Z,3.10
2018-07-15T20:41:12.069Z,2.60
2018-07-15T20:43:39.280Z,2.50
2018-07-15T20:46:06.205Z,2.50
2018-07-15T20:48:33.298Z,2.70
2018-07-15T20:53:38.914Z,2.87
2018-07-15T20:56:05.960Z,2.63
2018-07-15T20:58:33.051Z,2.70
2018-07-15T21:01:00.291Z,3.00
2018-07-15T21:03:27.288Z,2.80
2018-07-15T21:05:54.488Z,2.53
2018-07-15T21:08:21.518Z,2.83
2018-07-15T21:10:48.557Z,2.60
2018-07-15T21:13:15.565Z,2.63
2018-07-15T21:15:42.649Z,2.80
2018-07-15T21:18:09.715Z,3.00
2018-07-15T21:20:36.728Z,2.57
2018-07-15T21:23:03.838Z,2.80
2018-07-15T21:25:30.890Z,3.00
2018-07-15T21:27:57.871Z,3.20
2018-07-15T21:30:24.921Z,3.07
2018-07-15T21:32:51.967Z,3.20
2018-07-15T21:35:18.965Z,2.80
2018-07-15T21:37:46.042Z,2.80
2018-07-15T21:40:12.997Z,3.37
2018-07-15T21:42:40.938Z,2.53
2018-07-15T21:45:07.992Z,2.03
2018-07-15T21:47:35.037Z,2.47
2018-07-15T21:50:02.036Z,2.57
2018-07-15T21:52:29.909Z,2.70
2018-07-15T21:54:56.899Z,2.40
2018-07-15T21:57:23.908Z,2.43
2018-07-15T21:59:50.953Z,2.77
2018-07-15T22:13:00.773Z,2.30
2018-07-15T22:15:30.190Z,3.30
2018-07-15T22:17:56.861Z,2.50
2018-07-15T22:20:23.824Z,3.03
2018-07-15T22:22:50.866Z,3.27
2018-07-15T22:25:17.867Z,3.07
2018-07-15T22:27:46.556Z,2.93
2018-07-15T22:30:13.610Z,3.57
2018-07-15T22:32:40.593Z,3.00
2018-07-15T22:35:07.598Z,3.53
2018-07-15T22:37:34.630Z,3.50
2018-07-15T22:40:01.619Z,3.30
2018-07-15T22:42:28.593Z,3.33
2018-07-15T22:44:56.564Z,3.40
2018-07-15T22:47:23.558Z,3.90
2018-07-15T22:49:50.546Z,3.37
2018-07-15T22:52:17.604Z,3.80
2018-07-15T22:54:44.585Z,3.93
2018-07-15T22:57:11.581Z,4.37
2018-07-15T22:59:38.611Z,3.70
2018-07-15T23:02:05.588Z,3.97
2018-07-15T23:04:32.569Z,4.30
2018-07-15T23:06:59.632Z,3.70
2018-07-15T23:09:26.616Z,3.57
2018-07-15T23:11:53.613Z,3.13
2018-07-15T23:14:20.677Z,3.47
2018-07-15T23:16:47.661Z,3.30
2018-07-15T23:19:14.657Z,3.20
2018-07-15T23:21:41.695Z,3.30
2018-07-15T23:26:49.074Z,3.72
2018-07-15T23:29:16.060Z,4.07
2018-07-15T23:31:43.051Z,3.30
2018-07-15T23:34:10.361Z,3.70
2018-07-15T23:36:37.253Z,4.27
2018-07-15T23:39:04.251Z,3.23
2018-07-15T23:41:32.239Z,3.33
2018-07-15T23:43:59.225Z,3.00
2018-07-15T23:46:26.237Z,3.30
2018-07-15T23:48:53.332Z,3.03
2018-07-15T23:51:20.401Z,3.47
2018-07-15T23:53:47.306Z,3.50
2018-07-15T23:56:14.333Z,3.00
2018-07-15T23:58:41.326Z,2.80
